sensor_id;sensor_type;location;lat;lon;timestamp;pressure;altitude;pressure_sealevel;temperature;humidity
31062;BME280;17724;53.546;9.974;2023-03-03T00:03:09;102457.31;;;3.77;100.00
31062;BME280;17724;53.546;9.974;2023-03-03T00:07:11;102457.16;;;3.79;100.00
31062;BME280;17724;53.546;9.974;2023-03-03T00:11:12;102464.66;;;3.77;100.00
31062;BME280;17724;53.546;9.974;2023-03-03T00:15:18;102461.59;;;3.39;100.00
31062;BME280;17724;53.546;9.974;2023-03-03T00:19:19;102453.63;;;3.45;100.00
31062;BME280;17724;53.546;9.974;2023-03-03T00:23:25;102457.38;;;3.28;100.00
31062;BME280;17724;53.546;9.974;2023-03-03T00:27:34;102466.19;;;3.38;100.00
31062;BME280;17724;53.546;9.974;2023-03-03T00:31:37;102460.44;;;3.25;100.00
31062;BME280;17724;53.546;9.974;2023-03-03T00:35:38;102448.34;;;3.60;100.00
31062;BME280;17724;53.546;9.974;2023-03-03T00:39:38;102456.84;;;3.49;100.00
31062;BME280;17724;53.546;9.974;2023-03-03T00:43:39;102466.69;;;3.66;100.00
31062;BME280;17724;53.546;9.974;2023-03-03T00:47:42;102462.09;;;3.59;100.00
31062;BME280;17724;53.546;9.974;2023-03-03T00:51:42;102460.94;;;3.37;100.00
31062;BME280;17724;53.546;9.974;2023-03-03T00:55:44;102461.63;;;3.63;100.00
31062;BME280;17724;53.546;9.974;2023-03-03T00:59:45;102462.81;;;3.53;100.00
31062;BME280;17724;53.546;9.974;2023-03-03T01:03:46;102462.13;;;3.26;100.00
31062;BME280;17724;53.546;9.974;2023-03-03T01:07:46;102447.16;;;3.22;100.00
31062;BME280;17724;53.546;9.974;2023-03-03T01:11:47;102465.84;;;3.50;100.00
31062;BME280;17724;53.546;9.974;2023-03-03T01:15:49;102452.59;;;3.38;100.00
31062;BME280;17724;53.546;9.974;2023-03-03T01:19:50;102451.09;;;3.28;100.00
31062;BME280;17724;53.546;9.974;2023-03-03T01:23:51;102456.16;;;3.31;100.00
31062;BME280;17724;53.546;9.974;2023-03-03T01:27:52;102441.38;;;3.09;100.00
31062;BME280;17724;53.546;9.974;2023-03-03T01:31:52;102448.00;;;3.06;100.00
31062;BME280;17724;53.546;9.974;2023-03-03T01:35:53;102447.00;;;3.24;100.00
31062;BME280;17724;53.546;9.974;2023-03-03T01:39:54;102437.31;;;3.37;100.00
31062;BME280;17724;53.546;9.974;2023-03-03T01:43:55;102434.09;;;3.26;100.00
31062;BME280;17724;53.546;9.974;2023-03-03T01:52:00;102435.44;;;3.46;100.00
31062;BME280;17724;53.546;9.974;2023-03-03T01:56:03;102432.06;;;3.19;100.00
31062;BME280;17724;53.546;9.974;2023-03-03T02:00:05;102420.66;;;3.32;100.00
31062;BME280;17724;53.546;9.974;2023-03-03T02:04:13;102426.44;;;3.21;100.00
31062;BME280;17724;53.546;9.974;2023-03-03T02:08:17;102424.38;;;3.23;100.00
31062;BME280;17724;53.546;9.974;2023-03-03T02:12:29;102422.03;;;3.28;100.00
31062;BME280;17724;53.546;9.974;2023-03-03T02:16:31;102428.31;;;3.04;100.00
31062;BME280;17724;53.546;9.974;2023-03-03T02:24:50;102423.72;;;3.21;100.00
31062;BME280;17724;53.546;9.974;2023-03-03T02:28:53;102408.25;;;2.97;100.00
31062;BME280;17724;53.546;9.974;2023-03-03T02:32:54;102431.84;;;2.88;100.00
31062;BME280;17724;53.546;9.974;2023-03-03T02:36:55;102423.84;;;2.79;100.00
31062;BME280;17724;53.546;9.974;2023-03-03T02:41:02;102424.88;;;2.78;100.00
31062;BME280;17724;53.546;9.974;2023-03-03T02:45:08;102440.16;;;2.95;100.00
31062;BME280;17724;53.546;9.974;2023-03-03T02:49:11;102432.72;;;3.13;100.00
31062;BME280;17724;53.546;9.974;2023-03-03T02:53:11;102421.19;;;3.11;100.00
31062;BME280;17724;53.546;9.974;2023-03-03T02:57:13;102427.09;;;2.99;100.00
31062;BME280;17724;53.546;9.974;2023-03-03T03:01:13;102432.19;;;2.93;100.00
31062;BME280;17724;53.546;9.974;2023-03-03T03:05:15;102434.03;;;2.77;100.00
31062;BME280;17724;53.546;9.974;2023-03-03T03:09:17;102441.53;;;2.91;100.00
31062;BME280;17724;53.546;9.974;2023-03-03T03:13:18;102448.16;;;2.88;100.00
31062;BME280;17724;53.546;9.974;2023-03-03T03:17:19;102452.25;;;3.01;100.00
31062;BME280;17724;53.546;9.974;2023-03-03T03:21:20;102448.38;;;2.44;100.00
31062;BME280;17724;53.546;9.974;2023-03-03T03:25:21;102444.38;;;2.65;100.00
31062;BME280;17724;53.546;9.974;2023-03-03T03:29:22;102442.38;;;2.83;100.00
31062;BME280;17724;53.546;9.974;2023-03-03T03:33:23;102446.25;;;2.72;100.00
31062;BME280;17724;53.546;9.974;2023-03-03T03:37:25;102440.81;;;2.64;100.00
31062;BME280;17724;53.546;9.974;2023-03-03T03:41:25;102442.50;;;2.65;100.00
31062;BME280;17724;53.546;9.974;2023-03-03T03:45:26;102440.41;;;2.51;100.00
31062;BME280;17724;53.546;9.974;2023-03-03T03:49:27;102443.84;;;2.61;100.00
31062;BME280;17724;53.546;9.974;2023-03-03T03:53:30;102452.00;;;2.61;100.00
31062;BME280;17724;53.546;9.974;2023-03-03T03:57:31;102442.81;;;2.62;100.00
31062;BME280;17724;53.546;9.974;2023-03-03T04:01:32;102429.94;;;2.64;100.00
31062;BME280;17724;53.546;9.974;2023-03-03T04:05:33;102419.41;;;2.61;100.00
31062;BME280;17724;53.546;9.974;2023-03-03T04:09:34;102442.72;;;2.88;100.00
31062;BME280;17724;53.546;9.974;2023-03-03T04:13:35;102422.84;;;2.80;100.00
31062;BME280;17724;53.546;9.974;2023-03-03T04:17:39;102399.19;;;2.47;100.00
31062;BME280;17724;53.546;9.974;2023-03-03T04:21:41;102422.28;;;2.60;100.00
31062;BME280;17724;53.546;9.974;2023-03-03T04:25:41;102420.78;;;2.23;100.00
31062;BME280;17724;53.546;9.974;2023-03-03T04:29:47;102413.72;;;2.38;100.00
31062;BME280;17724;53.546;9.974;2023-03-03T04:33:48;102419.72;;;2.58;100.00
31062;BME280;17724;53.546;9.974;2023-03-03T04:37:49;102426.50;;;2.54;100.00
31062;BME280;17724;53.546;9.974;2023-03-03T04:41:50;102436.47;;;2.37;100.00
31062;BME280;17724;53.546;9.974;2023-03-03T04:45:51;102419.19;;;2.46;100.00
31062;BME280;17724;53.546;9.974;2023-03-03T04:49:52;102419.56;;;2.52;100.00
31062;BME280;17724;53.546;9.974;2023-03-03T04:53:53;102414.78;;;2.03;100.00
31062;BME280;17724;53.546;9.974;2023-03-03T04:57:53;102413.94;;;2.45;100.00
31062;BME280;17724;53.546;9.974;2023-03-03T05:01:54;102422.41;;;2.50;100.00
31062;BME280;17724;53.546;9.974;2023-03-03T05:05:55;102430.97;;;2.71;100.00
31062;BME280;17724;53.546;9.974;2023-03-03T05:09:55;102432.16;;;2.77;100.00
31062;BME280;17724;53.546;9.974;2023-03-03T05:13:55;102427.91;;;2.66;100.00
31062;BME280;17724;53.546;9.974;2023-03-03T05:17:56;102433.50;;;2.65;100.00
31062;BME280;17724;53.546;9.974;2023-03-03T05:21:57;102434.00;;;2.60;100.00
31062;BME280;17724;53.546;9.974;2023-03-03T05:25:58;102423.66;;;2.56;100.00
31062;BME280;17724;53.546;9.974;2023-03-03T05:29:58;102432.13;;;2.61;100.00
31062;BME280;17724;53.546;9.974;2023-03-03T05:33:59;102428.91;;;2.57;100.00
31062;BME280;17724;53.546;9.974;2023-03-03T05:37:59;102433.34;;;2.75;100.00
31062;BME280;17724;53.546;9.974;2023-03-03T05:42:00;102425.41;;;2.31;100.00
31062;BME280;17724;53.546;9.974;2023-03-03T05:46:01;102435.50;;;2.55;100.00
31062;BME280;17724;53.546;9.974;2023-03-03T05:50:02;102435.34;;;2.56;100.00
31062;BME280;17724;53.546;9.974;2023-03-03T05:54:03;102442.09;;;2.44;100.00
31062;BME280;17724;53.546;9.974;2023-03-03T05:58:03;102444.84;;;2.52;100.00
31062;BME280;17724;53.546;9.974;2023-03-03T06:02:04;102443.69;;;2.12;100.00
31062;BME280;17724;53.546;9.974;2023-03-03T06:06:05;102439.47;;;2.26;100.00
31062;BME280;17724;53.546;9.974;2023-03-03T06:10:06;102433.13;;;2.52;100.00
31062;BME280;17724;53.546;9.974;2023-03-03T06:14:09;102439.06;;;2.55;100.00
31062;BME280;17724;53.546;9.974;2023-03-03T06:18:10;102448.63;;;2.67;100.00
31062;BME280;17724;53.546;9.974;2023-03-03T06:22:10;102457.41;;;2.53;100.00
31062;BME280;17724;53.546;9.974;2023-03-03T06:26:11;102447.00;;;2.40;100.00
31062;BME280;17724;53.546;9.974;2023-03-03T06:30:12;102470.84;;;2.63;100.00
31062;BME280;17724;53.546;9.974;2023-03-03T06:34:13;102478.13;;;2.62;100.00
31062;BME280;17724;53.546;9.974;2023-03-03T06:38:13;102471.22;;;2.76;100.00
31062;BME280;17724;53.546;9.974;2023-03-03T06:42:14;102462.31;;;2.50;100.00
31062;BME280;17724;53.546;9.974;2023-03-03T06:46:14;102472.88;;;2.61;100.00
31062;BME280;17724;53.546;9.974;2023-03-03T06:50:18;102477.94;;;2.47;100.00
31062;BME280;17724;53.546;9.974;2023-03-03T06:54:25;102478.63;;;2.58;100.00
31062;BME280;17724;53.546;9.974;2023-03-03T06:58:26;102484.84;;;2.42;100.00
31062;BME280;17724;53.546;9.974;2023-03-03T07:02:28;102483.19;;;2.49;100.00
31062;BME280;17724;53.546;9.974;2023-03-03T07:06:29;102479.81;;;2.55;100.00
31062;BME280;17724;53.546;9.974;2023-03-03T07:10:31;102484.97;;;2.75;100.00
31062;BME280;17724;53.546;9.974;2023-03-03T07:14:33;102487.53;;;2.76;100.00
31062;BME280;17724;53.546;9.974;2023-03-03T07:22:41;102504.19;;;2.81;100.00
31062;BME280;17724;53.546;9.974;2023-03-03T07:26:42;102512.00;;;2.76;100.00
31062;BME280;17724;53.546;9.974;2023-03-03T07:30:42;102511.84;;;2.86;100.00
31062;BME280;17724;53.546;9.974;2023-03-03T07:34:45;102506.94;;;2.97;100.00
31062;BME280;17724;53.546;9.974;2023-03-03T07:38:52;102516.50;;;2.59;100.00
31062;BME280;17724;53.546;9.974;2023-03-03T07:42:53;102511.16;;;2.84;100.00
31062;BME280;17724;53.546;9.974;2023-03-03T07:55:32;102524.75;;;2.84;100.00
31062;BME280;17724;53.546;9.974;2023-03-03T07:59:34;102504.91;;;2.91;100.00
31062;BME280;17724;53.546;9.974;2023-03-03T08:03:36;102505.22;;;2.88;100.00
31062;BME280;17724;53.546;9.974;2023-03-03T08:07:36;102511.88;;;3.02;100.00
31062;BME280;17724;53.546;9.974;2023-03-03T08:11:52;102523.16;;;3.24;100.00
31062;BME280;17724;53.546;9.974;2023-03-03T08:20:10;102512.00;;;2.84;100.00
31062;BME280;17724;53.546;9.974;2023-03-03T08:24:27;102520.16;;;2.84;100.00
31062;BME280;17724;53.546;9.974;2023-03-03T08:28:27;102515.63;;;3.01;100.00
31062;BME280;17724;53.546;9.974;2023-03-03T08:32:28;102514.97;;;3.07;100.00
31062;BME280;17724;53.546;9.974;2023-03-03T08:36:28;102500.63;;;2.89;100.00
31062;BME280;17724;53.546;9.974;2023-03-03T08:40:29;102506.63;;;3.01;100.00
31062;BME280;17724;53.546;9.974;2023-03-03T08:44:30;102500.63;;;2.81;100.00
31062;BME280;17724;53.546;9.974;2023-03-03T08:48:31;102497.94;;;2.89;100.00
31062;BME280;17724;53.546;9.974;2023-03-03T08:52:32;102491.47;;;2.90;100.00
31062;BME280;17724;53.546;9.974;2023-03-03T08:56:33;102496.78;;;3.00;100.00
31062;BME280;17724;53.546;9.974;2023-03-03T09:00:34;102505.59;;;3.10;100.00
31062;BME280;17724;53.546;9.974;2023-03-03T09:04:35;102502.75;;;3.11;100.00
31062;BME280;17724;53.546;9.974;2023-03-03T09:08:36;102504.44;;;3.12;100.00
31062;BME280;17724;53.546;9.974;2023-03-03T09:12:39;102509.69;;;3.06;100.00
31062;BME280;17724;53.546;9.974;2023-03-03T09:16:47;102515.84;;;3.24;100.00
31062;BME280;17724;53.546;9.974;2023-03-03T09:20:51;102518.56;;;3.40;100.00
31062;BME280;17724;53.546;9.974;2023-03-03T09:24:55;102524.53;;;3.44;100.00
31062;BME280;17724;53.546;9.974;2023-03-03T09:37:36;102536.06;;;3.30;100.00
31062;BME280;17724;53.546;9.974;2023-03-03T09:45:58;102534.56;;;3.52;100.00
31062;BME280;17724;53.546;9.974;2023-03-03T09:54:55;102541.50;;;3.79;100.00
31062;BME280;17724;53.546;9.974;2023-03-03T10:07:59;102546.81;;;3.64;100.00
31062;BME280;17724;53.546;9.974;2023-03-03T10:12:18;102541.00;;;3.67;100.00
31062;BME280;17724;53.546;9.974;2023-03-03T10:16:46;102542.72;;;3.84;100.00
31062;BME280;17724;53.546;9.974;2023-03-03T10:25:03;102535.03;;;4.04;100.00
31062;BME280;17724;53.546;9.974;2023-03-03T11:08:06;102499.97;;;4.57;100.00
31062;BME280;17724;53.546;9.974;2023-03-03T11:12:26;102503.78;;;4.79;100.00
31062;BME280;17724;53.546;9.974;2023-03-03T11:29:10;102485.88;;;4.84;100.00
31062;BME280;17724;53.546;9.974;2023-03-03T11:33:26;102480.81;;;5.04;100.00
31062;BME280;17724;53.546;9.974;2023-03-03T11:46:01;102475.72;;;5.24;100.00
31062;BME280;17724;53.546;9.974;2023-03-03T11:50:08;102462.16;;;5.39;100.00
31062;BME280;17724;53.546;9.974;2023-03-03T11:58:28;102457.13;;;5.42;100.00
31062;BME280;17724;53.546;9.974;2023-03-03T12:07:27;102433.63;;;5.41;100.00
31062;BME280;17724;53.546;9.974;2023-03-03T12:11:57;102422.69;;;5.79;100.00
31062;BME280;17724;53.546;9.974;2023-03-03T12:20:17;102426.66;;;6.06;100.00
31062;BME280;17724;53.546;9.974;2023-03-03T12:24:33;102416.22;;;6.10;100.00
31062;BME280;17724;53.546;9.974;2023-03-03T12:28:49;102418.72;;;6.41;100.00
31062;BME280;17724;53.546;9.974;2023-03-03T12:37:24;102396.38;;;6.74;99.95
31062;BME280;17724;53.546;9.974;2023-03-03T12:45:50;102395.88;;;6.63;97.60
31062;BME280;17724;53.546;9.974;2023-03-03T12:58:51;102376.84;;;7.20;96.07
31062;BME280;17724;53.546;9.974;2023-03-03T13:15:34;102349.34;;;6.78;95.52
31062;BME280;17724;53.546;9.974;2023-03-03T13:19:39;102345.03;;;6.90;95.54
31062;BME280;17724;53.546;9.974;2023-03-03T13:28:29;102335.13;;;6.68;91.55
31062;BME280;17724;53.546;9.974;2023-03-03T13:36:41;102341.13;;;7.00;87.71
31062;BME280;17724;53.546;9.974;2023-03-03T13:44:45;102343.56;;;7.16;85.85
31062;BME280;17724;53.546;9.974;2023-03-03T13:53:32;102331.31;;;7.40;85.41
31062;BME280;17724;53.546;9.974;2023-03-03T13:58:28;102329.03;;;7.44;86.01
31062;BME280;17724;53.546;9.974;2023-03-03T14:06:28;102310.34;;;7.54;86.04
31062;BME280;17724;53.546;9.974;2023-03-03T14:15:15;102303.53;;;7.78;85.33
31062;BME280;17724;53.546;9.974;2023-03-03T14:19:25;102298.38;;;7.61;81.77
31062;BME280;17724;53.546;9.974;2023-03-03T14:24:22;102292.34;;;7.66;82.75
31062;BME280;17724;53.546;9.974;2023-03-03T14:28:09;102281.56;;;7.64;81.42
31062;BME280;17724;53.546;9.974;2023-03-03T14:32:23;102280.16;;;7.82;80.70
31062;BME280;17724;53.546;9.974;2023-03-03T14:36:33;102276.84;;;7.86;80.23
31062;BME280;17724;53.546;9.974;2023-03-03T14:40:37;102276.28;;;8.11;79.64
31062;BME280;17724;53.546;9.974;2023-03-03T14:48:55;102281.84;;;7.76;78.70
31062;BME280;17724;53.546;9.974;2023-03-03T14:53:38;102272.09;;;7.67;77.22
31062;BME280;17724;53.546;9.974;2023-03-03T14:57:42;102245.66;;;7.11;78.36
31062;BME280;17724;53.546;9.974;2023-03-03T15:01:46;102260.44;;;7.17;79.83
31062;BME280;17724;53.546;9.974;2023-03-03T15:05:56;102256.19;;;7.43;79.85
31062;BME280;17724;53.546;9.974;2023-03-03T15:09:57;102247.47;;;7.67;79.52
31062;BME280;17724;53.546;9.974;2023-03-03T15:14:14;102246.63;;;7.67;78.85
31062;BME280;17724;53.546;9.974;2023-03-03T15:18:16;102236.13;;;7.77;78.58
31062;BME280;17724;53.546;9.974;2023-03-03T15:22:42;102235.13;;;7.43;79.80
31062;BME280;17724;53.546;9.974;2023-03-03T15:27:01;102221.63;;;7.35;80.60
31062;BME280;17724;53.546;9.974;2023-03-03T15:40:03;102218.53;;;7.58;79.57
31062;BME280;17724;53.546;9.974;2023-03-03T15:48:17;102217.25;;;7.54;80.20
31062;BME280;17724;53.546;9.974;2023-03-03T16:30:51;102207.31;;;7.94;80.59
31062;BME280;17724;53.546;9.974;2023-03-03T16:39:28;102202.38;;;7.63;81.02
31062;BME280;17724;53.546;9.974;2023-03-03T16:43:41;102213.84;;;7.38;80.78
31062;BME280;17724;53.546;9.974;2023-03-03T16:52:07;102220.78;;;7.34;81.26
31062;BME280;17724;53.546;9.974;2023-03-03T16:56:18;102219.31;;;7.38;80.99
31062;BME280;17724;53.546;9.974;2023-03-03T17:01:10;102212.03;;;7.59;82.29
31062;BME280;17724;53.546;9.974;2023-03-03T17:04:53;102217.59;;;7.37;82.00
31062;BME280;17724;53.546;9.974;2023-03-03T17:13:29;102211.22;;;7.65;82.80
31062;BME280;17724;53.546;9.974;2023-03-03T17:17:43;102209.88;;;7.48;82.97
31062;BME280;17724;53.546;9.974;2023-03-03T17:22:22;102222.28;;;7.44;83.21
31062;BME280;17724;53.546;9.974;2023-03-03T17:30:44;102221.56;;;7.28;84.58
31062;BME280;17724;53.546;9.974;2023-03-03T17:39:46;102217.41;;;7.39;83.71
31062;BME280;17724;53.546;9.974;2023-03-03T17:52:40;102204.41;;;7.13;85.50
31062;BME280;17724;53.546;9.974;2023-03-03T17:56:56;102201.03;;;6.76;86.75
31062;BME280;17724;53.546;9.974;2023-03-03T18:10:00;102200.22;;;7.17;87.31
31062;BME280;17724;53.546;9.974;2023-03-03T18:18:48;102205.06;;;7.15;85.60
31062;BME280;17724;53.546;9.974;2023-03-03T18:22:54;102207.75;;;7.08;85.27
31062;BME280;17724;53.546;9.974;2023-03-03T18:27:00;102208.31;;;7.32;87.77
31062;BME280;17724;53.546;9.974;2023-03-03T18:31:24;102203.97;;;7.09;86.80
31062;BME280;17724;53.546;9.974;2023-03-03T18:35:42;102204.03;;;7.16;87.10
31062;BME280;17724;53.546;9.974;2023-03-03T18:44:31;102191.06;;;6.97;85.98
31062;BME280;17724;53.546;9.974;2023-03-03T18:48:51;102189.44;;;7.02;86.45
31062;BME280;17724;53.546;9.974;2023-03-03T18:53:16;102181.47;;;7.07;86.12
31062;BME280;17724;53.546;9.974;2023-03-03T18:57:17;102179.16;;;7.11;87.75
31062;BME280;17724;53.546;9.974;2023-03-03T19:01:41;102176.03;;;6.79;86.86
31062;BME280;17724;53.546;9.974;2023-03-03T19:05:47;102182.78;;;6.83;87.19
31062;BME280;17724;53.546;9.974;2023-03-03T19:10:00;102184.50;;;6.91;88.20
31062;BME280;17724;53.546;9.974;2023-03-03T19:14:13;102189.63;;;7.01;89.09
31062;BME280;17724;53.546;9.974;2023-03-03T19:18:20;102174.72;;;7.10;88.95
31062;BME280;17724;53.546;9.974;2023-03-03T19:22:24;102172.59;;;6.71;88.17
31062;BME280;17724;53.546;9.974;2023-03-03T19:48:51;102172.03;;;6.54;88.66
31062;BME280;17724;53.546;9.974;2023-03-03T19:53:01;102177.06;;;6.78;89.00
31062;BME280;17724;53.546;9.974;2023-03-03T19:57:15;102164.81;;;6.74;90.71
31062;BME280;17724;53.546;9.974;2023-03-03T20:27:38;102165.16;;;6.93;91.59
31062;BME280;17724;53.546;9.974;2023-03-03T20:36:24;102154.53;;;6.76;91.74
31062;BME280;17724;53.546;9.974;2023-03-03T20:49:51;102159.56;;;7.07;95.29
31062;BME280;17724;53.546;9.974;2023-03-03T20:58:26;102167.72;;;7.01;93.94
31062;BME280;17724;53.546;9.974;2023-03-03T21:02:46;102152.38;;;7.00;95.37
31062;BME280;17724;53.546;9.974;2023-03-03T21:06:49;102145.25;;;7.05;93.97
31062;BME280;17724;53.546;9.974;2023-03-03T21:10:56;102147.22;;;6.83;94.15
31062;BME280;17724;53.546;9.974;2023-03-03T21:15:02;102157.50;;;6.81;94.99
31062;BME280;17724;53.546;9.974;2023-03-03T21:19:11;102150.53;;;7.07;96.01
31062;BME280;17724;53.546;9.974;2023-03-03T21:23:12;102154.38;;;7.19;94.44
31062;BME280;17724;53.546;9.974;2023-03-03T21:27:32;102143.59;;;7.11;94.29
31062;BME280;17724;53.546;9.974;2023-03-03T21:35:56;102133.50;;;7.18;94.88
31062;BME280;17724;53.546;9.974;2023-03-03T21:40:16;102128.81;;;6.99;94.99
31062;BME280;17724;53.546;9.974;2023-03-03T21:44:41;102134.16;;;7.20;96.74
31062;BME280;17724;53.546;9.974;2023-03-03T21:48:51;102121.88;;;7.03;95.94
31062;BME280;17724;53.546;9.974;2023-03-03T21:52:51;102121.22;;;7.01;96.44
31062;BME280;17724;53.546;9.974;2023-03-03T21:56:52;102116.53;;;7.29;96.65
31062;BME280;17724;53.546;9.974;2023-03-03T22:00:53;102117.16;;;7.31;95.54
31062;BME280;17724;53.546;9.974;2023-03-03T22:04:53;102125.34;;;7.25;95.51
31062;BME280;17724;53.546;9.974;2023-03-03T22:08:54;102109.22;;;7.02;97.69
31062;BME280;17724;53.546;9.974;2023-03-03T22:12:54;102116.59;;;6.95;96.53
31062;BME280;17724;53.546;9.974;2023-03-03T22:16:55;102118.00;;;6.84;97.26
31062;BME280;17724;53.546;9.974;2023-03-03T22:20:56;102105.88;;;7.00;97.06
31062;BME280;17724;53.546;9.974;2023-03-03T22:24:56;102110.50;;;6.99;96.90
31062;BME280;17724;53.546;9.974;2023-03-03T22:29:00;102102.31;;;7.06;97.37
31062;BME280;17724;53.546;9.974;2023-03-03T22:33:00;102097.50;;;7.08;96.22
31062;BME280;17724;53.546;9.974;2023-03-03T22:37:01;102097.09;;;7.11;96.10
31062;BME280;17724;53.546;9.974;2023-03-03T22:41:01;102085.31;;;7.10;96.76
31062;BME280;17724;53.546;9.974;2023-03-03T22:45:02;102088.78;;;6.91;96.20
31062;BME280;17724;53.546;9.974;2023-03-03T22:49:02;102078.31;;;7.01;96.91
31062;BME280;17724;53.546;9.974;2023-03-03T22:53:03;102106.44;;;6.88;95.65
31062;BME280;17724;53.546;9.974;2023-03-03T22:57:04;102092.03;;;6.66;96.75
31062;BME280;17724;53.546;9.974;2023-03-03T23:01:04;102091.47;;;6.50;96.55
31062;BME280;17724;53.546;9.974;2023-03-03T23:05:06;102094.72;;;6.32;97.90
31062;BME280;17724;53.546;9.974;2023-03-03T23:09:10;102085.38;;;6.48;98.14
31062;BME280;17724;53.546;9.974;2023-03-03T23:13:10;102079.00;;;6.40;98.44
31062;BME280;17724;53.546;9.974;2023-03-03T23:17:11;102080.84;;;6.33;98.90
31062;BME280;17724;53.546;9.974;2023-03-03T23:21:11;102082.94;;;6.59;98.01
31062;BME280;17724;53.546;9.974;2023-03-03T23:25:12;102084.84;;;6.65;97.62
31062;BME280;17724;53.546;9.974;2023-03-03T23:29:13;102087.22;;;6.75;97.26
31062;BME280;17724;53.546;9.974;2023-03-03T23:33:14;102083.72;;;6.88;96.64
31062;BME280;17724;53.546;9.974;2023-03-03T23:37:14;102074.44;;;6.82;96.81
31062;BME280;17724;53.546;9.974;2023-03-03T23:41:15;102068.09;;;6.82;96.68
31062;BME280;17724;53.546;9.974;2023-03-03T23:45:16;102070.38;;;6.72;97.12
31062;BME280;17724;53.546;9.974;2023-03-03T23:49:16;102058.28;;;6.53;97.20
31062;BME280;17724;53.546;9.974;2023-03-03T23:53:17;102063.03;;;6.72;96.70
31062;BME280;17724;53.546;9.974;2023-03-03T23:57:18;102069.22;;;6.94;95.88
